sensor_id;sensor_type;location;lat;lon;timestamp;pressure;altitude;pressure_sealevel;temperature;humidity
59329;BME280;45100;46.926;7.452;2023-09-18T00:00:06;94834.83;;;18.81;84.21
59329;BME280;45100;46.926;7.452;2023-09-18T00:02:34;94838.98;;;18.79;84.26
59329;BME280;45100;46.926;7.452;2023-09-18T00:05:05;94836.31;;;18.81;84.39
59329;BME280;45100;46.926;7.452;2023-09-18T00:07:35;94825.00;;;18.86;84.38
59329;BME280;45100;46.926;7.452;2023-09-18T00:10:06;94827.69;;;18.91;84.45
59329;BME280;45100;46.926;7.452;2023-09-18T00:15:11;94831.56;;;18.98;84.52
59329;BME280;45100;46.926;7.452;2023-09-18T00:17:39;94818.81;;;19.01;84.64
59329;BME280;45100;46.926;7.452;2023-09-18T00:20:10;94820.22;;;19.01;85.03
59329;BME280;45100;46.926;7.452;2023-09-18T00:22:40;94825.95;;;19.01;84.94
59329;BME280;45100;46.926;7.452;2023-09-18T00:25:11;94829.91;;;19.00;84.73
59329;BME280;45100;46.926;7.452;2023-09-18T00:27:42;94822.17;;;18.98;84.39
59329;BME280;45100;46.926;7.452;2023-09-18T00:30:12;94810.25;;;18.96;84.20
59329;BME280;45100;46.926;7.452;2023-09-18T00:32:42;94798.62;;;18.93;83.64
59329;BME280;45100;46.926;7.452;2023-09-18T00:35:13;94798.22;;;18.91;83.50
59329;BME280;45100;46.926;7.452;2023-09-18T00:37:44;94794.44;;;18.87;83.45
59329;BME280;45100;46.926;7.452;2023-09-18T00:40:14;94789.26;;;18.86;83.18
59329;BME280;45100;46.926;7.452;2023-09-18T00:42:44;94791.72;;;18.86;83.02
59329;BME280;45100;46.926;7.452;2023-09-18T00:45:15;94795.67;;;18.84;83.08
59329;BME280;45100;46.926;7.452;2023-09-18T00:47:45;94797.09;;;18.80;83.25
59329;BME280;45100;46.926;7.452;2023-09-18T00:50:15;94811.80;;;18.77;83.57
59329;BME280;45100;46.926;7.452;2023-09-18T00:52:47;94817.34;;;18.73;83.77
59329;BME280;45100;46.926;7.452;2023-09-18T00:55:17;94812.80;;;18.68;84.22
59329;BME280;45100;46.926;7.452;2023-09-18T00:57:47;94820.42;;;18.64;84.83
59329;BME280;45100;46.926;7.452;2023-09-18T01:00:18;94833.43;;;18.63;84.80
59329;BME280;45100;46.926;7.452;2023-09-18T01:02:49;94832.58;;;18.55;85.06
59329;BME280;45100;46.926;7.452;2023-09-18T01:05:20;94825.05;;;18.41;85.80
59329;BME280;45100;46.926;7.452;2023-09-18T01:07:49;94827.92;;;18.31;86.40
59329;BME280;45100;46.926;7.452;2023-09-18T01:10:23;94812.61;;;18.26;86.52
59329;BME280;45100;46.926;7.452;2023-09-18T01:13:01;94805.83;;;18.24;86.84
59329;BME280;45100;46.926;7.452;2023-09-18T01:15:23;94813.20;;;18.27;86.81
59329;BME280;45100;46.926;7.452;2023-09-18T01:17:52;94824.76;;;18.31;86.57
59329;BME280;45100;46.926;7.452;2023-09-18T01:22:56;94831.05;;;18.35;86.30
59329;BME280;45100;46.926;7.452;2023-09-18T01:25:27;94836.66;;;18.36;86.44
59329;BME280;45100;46.926;7.452;2023-09-18T01:27:58;94854.41;;;18.37;86.39
59329;BME280;45100;46.926;7.452;2023-09-18T01:30:28;94852.12;;;18.38;86.53
59329;BME280;45100;46.926;7.452;2023-09-18T01:33:00;94855.88;;;18.39;86.65
59329;BME280;45100;46.926;7.452;2023-09-18T01:38:04;94894.29;;;18.47;86.41
59329;BME280;45100;46.926;7.452;2023-09-18T01:40:34;94901.30;;;18.51;86.16
59329;BME280;45100;46.926;7.452;2023-09-18T01:45:37;94893.55;;;18.73;85.45
59329;BME280;45100;46.926;7.452;2023-09-18T01:48:07;94883.81;;;18.87;84.90
59329;BME280;45100;46.926;7.452;2023-09-18T01:50:38;94869.00;;;19.03;84.30
59329;BME280;45100;46.926;7.452;2023-09-18T01:53:08;94883.11;;;19.13;83.79
59329;BME280;45100;46.926;7.452;2023-09-18T01:55:39;94890.62;;;19.21;83.30
59329;BME280;45100;46.926;7.452;2023-09-18T01:58:10;94895.42;;;19.28;82.84
59329;BME280;45100;46.926;7.452;2023-09-18T02:00:40;94898.72;;;19.35;81.67
59329;BME280;45100;46.926;7.452;2023-09-18T02:03:11;94901.38;;;19.41;81.38
59329;BME280;45100;46.926;7.452;2023-09-18T02:05:43;94903.68;;;19.45;81.26
59329;BME280;45100;46.926;7.452;2023-09-18T02:08:12;94897.98;;;19.49;80.77
59329;BME280;45100;46.926;7.452;2023-09-18T02:10:43;94898.77;;;19.53;80.18
59329;BME280;45100;46.926;7.452;2023-09-18T02:13:14;94913.27;;;19.58;79.80
59329;BME280;45100;46.926;7.452;2023-09-18T02:15:44;94920.02;;;19.64;79.42
59329;BME280;45100;46.926;7.452;2023-09-18T02:18:16;94915.36;;;19.67;79.14
59329;BME280;45100;46.926;7.452;2023-09-18T02:20:49;94921.30;;;19.70;79.00
59329;BME280;45100;46.926;7.452;2023-09-18T02:23:16;94909.00;;;19.70;78.04
59329;BME280;45100;46.926;7.452;2023-09-18T02:28:22;94905.02;;;19.69;78.39
59329;BME280;45100;46.926;7.452;2023-09-18T02:30:51;94912.73;;;19.68;78.93
59329;BME280;45100;46.926;7.452;2023-09-18T02:33:22;94916.84;;;19.64;79.83
59329;BME280;45100;46.926;7.452;2023-09-18T02:35:53;94920.15;;;19.51;80.70
59329;BME280;45100;46.926;7.452;2023-09-18T02:38:23;94924.94;;;19.34;81.76
59329;BME280;45100;46.926;7.452;2023-09-18T02:40:55;94919.20;;;19.17;82.81
59329;BME280;45100;46.926;7.452;2023-09-18T02:43:25;94926.89;;;19.04;83.53
59329;BME280;45100;46.926;7.452;2023-09-18T02:45:55;94923.05;;;18.97;84.06
59329;BME280;45100;46.926;7.452;2023-09-18T02:48:26;94927.43;;;18.90;84.52
59329;BME280;45100;46.926;7.452;2023-09-18T02:51:00;94925.75;;;18.82;84.99
59329;BME280;45100;46.926;7.452;2023-09-18T02:53:29;94943.33;;;18.78;85.47
59329;BME280;45100;46.926;7.452;2023-09-18T02:55:59;94948.78;;;18.76;85.83
59329;BME280;45100;46.926;7.452;2023-09-18T02:58:31;94947.91;;;18.76;85.94
59329;BME280;45100;46.926;7.452;2023-09-18T03:01:00;94944.75;;;18.76;85.92
59329;BME280;45100;46.926;7.452;2023-09-18T03:03:30;94937.11;;;18.78;85.87
59329;BME280;45100;46.926;7.452;2023-09-18T03:06:01;94930.02;;;18.78;85.68
59329;BME280;45100;46.926;7.452;2023-09-18T03:08:31;94927.02;;;18.77;85.61
59329;BME280;45100;46.926;7.452;2023-09-18T03:11:01;94927.97;;;18.75;85.72
59329;BME280;45100;46.926;7.452;2023-09-18T03:13:32;94918.97;;;18.73;85.72
59329;BME280;45100;46.926;7.452;2023-09-18T03:16:03;94910.84;;;18.72;85.82
59329;BME280;45100;46.926;7.452;2023-09-18T03:18:33;94898.92;;;18.69;85.63
59329;BME280;45100;46.926;7.452;2023-09-18T03:21:04;94889.36;;;18.64;85.80
59329;BME280;45100;46.926;7.452;2023-09-18T03:23:34;94886.04;;;18.61;86.09
59329;BME280;45100;46.926;7.452;2023-09-18T03:26:05;94876.06;;;18.59;86.33
59329;BME280;45100;46.926;7.452;2023-09-18T03:28:36;94870.58;;;18.57;86.45
59329;BME280;45100;46.926;7.452;2023-09-18T03:31:07;94870.26;;;18.55;86.38
59329;BME280;45100;46.926;7.452;2023-09-18T03:33:37;94880.54;;;18.53;86.48
59329;BME280;45100;46.926;7.452;2023-09-18T03:36:08;94894.17;;;18.53;86.58
59329;BME280;45100;46.926;7.452;2023-09-18T03:38:38;94890.19;;;18.53;86.66
59329;BME280;45100;46.926;7.452;2023-09-18T03:41:09;94885.72;;;18.54;86.67
59329;BME280;45100;46.926;7.452;2023-09-18T03:43:39;94877.87;;;18.54;86.58
59329;BME280;45100;46.926;7.452;2023-09-18T03:46:10;94873.45;;;18.54;86.61
59329;BME280;45100;46.926;7.452;2023-09-18T03:48:41;94874.27;;;18.54;86.68
59329;BME280;45100;46.926;7.452;2023-09-18T03:51:16;94876.94;;;18.54;86.76
59329;BME280;45100;46.926;7.452;2023-09-18T03:53:42;94881.88;;;18.56;86.78
59329;BME280;45100;46.926;7.452;2023-09-18T03:56:13;94881.11;;;18.56;86.72
59329;BME280;45100;46.926;7.452;2023-09-18T03:58:49;94880.62;;;18.56;86.84
59329;BME280;45100;46.926;7.452;2023-09-18T04:01:14;94873.64;;;18.57;86.92
59329;BME280;45100;46.926;7.452;2023-09-18T04:03:45;94873.66;;;18.58;86.91
59329;BME280;45100;46.926;7.452;2023-09-18T04:06:15;94867.20;;;18.58;86.88
59329;BME280;45100;46.926;7.452;2023-09-18T04:08:46;94869.33;;;18.58;86.96
59329;BME280;45100;46.926;7.452;2023-09-18T04:11:17;94874.70;;;18.59;86.84
59329;BME280;45100;46.926;7.452;2023-09-18T04:13:47;94881.10;;;18.62;86.62
59329;BME280;45100;46.926;7.452;2023-09-18T04:16:18;94883.80;;;18.66;86.43
59329;BME280;45100;46.926;7.452;2023-09-18T04:18:49;94880.88;;;18.69;86.21
59329;BME280;45100;46.926;7.452;2023-09-18T04:21:19;94885.26;;;18.73;86.32
59329;BME280;45100;46.926;7.452;2023-09-18T04:23:58;94877.08;;;18.72;86.34
59329;BME280;45100;46.926;7.452;2023-09-18T04:26:21;94863.80;;;18.69;86.71
59329;BME280;45100;46.926;7.452;2023-09-18T04:28:50;94865.74;;;18.66;86.99
59329;BME280;45100;46.926;7.452;2023-09-18T04:31:21;94869.56;;;18.64;87.27
59329;BME280;45100;46.926;7.452;2023-09-18T04:33:52;94871.83;;;18.63;87.79
59329;BME280;45100;46.926;7.452;2023-09-18T04:36:23;94879.82;;;18.61;88.24
59329;BME280;45100;46.926;7.452;2023-09-18T04:38:54;94894.93;;;18.60;88.33
59329;BME280;45100;46.926;7.452;2023-09-18T04:41:24;94889.70;;;18.59;88.59
59329;BME280;45100;46.926;7.452;2023-09-18T04:43:55;94865.48;;;18.59;88.81
59329;BME280;45100;46.926;7.452;2023-09-18T04:46:25;94861.44;;;18.60;88.98
59329;BME280;45100;46.926;7.452;2023-09-18T04:51:27;94891.88;;;18.59;89.31
59329;BME280;45100;46.926;7.452;2023-09-18T04:53:58;94906.12;;;18.53;89.40
59329;BME280;45100;46.926;7.452;2023-09-18T04:56:30;94908.08;;;18.47;90.00
59329;BME280;45100;46.926;7.452;2023-09-18T05:01:32;94888.41;;;18.41;91.36
59329;BME280;45100;46.926;7.452;2023-09-18T05:04:03;94901.95;;;18.39;92.15
59329;BME280;45100;46.926;7.452;2023-09-18T05:06:32;94921.33;;;18.35;92.74
59329;BME280;45100;46.926;7.452;2023-09-18T05:09:03;94926.09;;;18.27;93.42
59329;BME280;45100;46.926;7.452;2023-09-18T05:11:33;94919.80;;;18.23;94.50
59329;BME280;45100;46.926;7.452;2023-09-18T05:14:04;94915.62;;;18.18;95.07
59329;BME280;45100;46.926;7.452;2023-09-18T05:16:35;94925.95;;;18.17;95.41
59329;BME280;45100;46.926;7.452;2023-09-18T05:19:05;94913.91;;;18.17;95.98
59329;BME280;45100;46.926;7.452;2023-09-18T05:21:36;94929.50;;;18.18;96.03
59329;BME280;45100;46.926;7.452;2023-09-18T05:24:07;94932.00;;;18.17;96.33
59329;BME280;45100;46.926;7.452;2023-09-18T05:26:37;94915.67;;;18.14;96.30
59329;BME280;45100;46.926;7.452;2023-09-18T05:29:08;94932.24;;;18.14;96.70
59329;BME280;45100;46.926;7.452;2023-09-18T05:31:38;94942.19;;;18.12;97.36
59329;BME280;45100;46.926;7.452;2023-09-18T05:34:10;94956.36;;;18.12;97.56
59329;BME280;45100;46.926;7.452;2023-09-18T05:36:40;94973.06;;;18.13;97.79
59329;BME280;45100;46.926;7.452;2023-09-18T05:39:13;94999.61;;;18.13;98.00
59329;BME280;45100;46.926;7.452;2023-09-18T05:41:42;95016.25;;;18.12;98.08
59329;BME280;45100;46.926;7.452;2023-09-18T05:44:11;95021.28;;;18.07;98.15
59329;BME280;45100;46.926;7.452;2023-09-18T05:46:42;94993.20;;;18.01;99.06
59329;BME280;45100;46.926;7.452;2023-09-18T05:49:13;94980.85;;;17.99;99.48
59329;BME280;45100;46.926;7.452;2023-09-18T05:51:44;94963.81;;;17.96;100.00
59329;BME280;45100;46.926;7.452;2023-09-18T05:54:14;94958.15;;;17.95;100.00
59329;BME280;45100;46.926;7.452;2023-09-18T05:56:45;94963.87;;;17.94;100.00
59329;BME280;45100;46.926;7.452;2023-09-18T05:59:17;94971.08;;;17.93;99.72
59329;BME280;45100;46.926;7.452;2023-09-18T06:01:46;94975.82;;;17.92;99.65
59329;BME280;45100;46.926;7.452;2023-09-18T06:04:17;94986.36;;;17.91;98.82
59329;BME280;45100;46.926;7.452;2023-09-18T06:06:47;95010.61;;;17.91;98.88
59329;BME280;45100;46.926;7.452;2023-09-18T06:09:18;95033.95;;;17.91;98.53
59329;BME280;45100;46.926;7.452;2023-09-18T06:11:49;95049.98;;;17.89;96.99
59329;BME280;45100;46.926;7.452;2023-09-18T06:14:18;95060.59;;;17.79;94.05
59329;BME280;45100;46.926;7.452;2023-09-18T06:16:49;95011.71;;;17.68;94.53
59329;BME280;45100;46.926;7.452;2023-09-18T06:19:20;95046.50;;;17.60;96.33
59329;BME280;45100;46.926;7.452;2023-09-18T06:24:24;95020.89;;;17.51;96.35
59329;BME280;45100;46.926;7.452;2023-09-18T06:26:54;95018.67;;;17.44;95.85
59329;BME280;45100;46.926;7.452;2023-09-18T06:31:58;95022.57;;;17.35;96.39
59329;BME280;45100;46.926;7.452;2023-09-18T06:34:29;95032.38;;;17.36;96.70
59329;BME280;45100;46.926;7.452;2023-09-18T06:36:57;95038.77;;;17.40;96.69
59329;BME280;45100;46.926;7.452;2023-09-18T06:39:28;95043.95;;;17.42;96.43
59329;BME280;45100;46.926;7.452;2023-09-18T06:41:59;95045.19;;;17.44;96.25
59329;BME280;45100;46.926;7.452;2023-09-18T06:44:30;95050.89;;;17.46;95.99
59329;BME280;45100;46.926;7.452;2023-09-18T06:47:00;95064.28;;;17.47;95.77
59329;BME280;45100;46.926;7.452;2023-09-18T06:49:31;95075.67;;;17.47;95.93
59329;BME280;45100;46.926;7.452;2023-09-18T06:52:01;95082.64;;;17.48;95.17
59329;BME280;45100;46.926;7.452;2023-09-18T06:54:32;95083.56;;;17.48;94.96
59329;BME280;45100;46.926;7.452;2023-09-18T06:57:04;95062.38;;;17.47;94.49
59329;BME280;45100;46.926;7.452;2023-09-18T07:02:07;95064.23;;;17.30;95.60
59329;BME280;45100;46.926;7.452;2023-09-18T07:04:42;95073.59;;;17.25;96.63
59329;BME280;45100;46.926;7.452;2023-09-18T07:07:07;95064.39;;;17.26;97.05
59329;BME280;45100;46.926;7.452;2023-09-18T07:09:38;95056.13;;;17.23;96.77
59329;BME280;45100;46.926;7.452;2023-09-18T07:12:10;95071.97;;;17.19;97.28
59329;BME280;45100;46.926;7.452;2023-09-18T07:14:40;95078.02;;;17.20;97.98
59329;BME280;45100;46.926;7.452;2023-09-18T07:17:10;95078.66;;;17.22;98.38
59329;BME280;45100;46.926;7.452;2023-09-18T07:19:40;95076.26;;;17.25;98.11
59329;BME280;45100;46.926;7.452;2023-09-18T07:22:11;95073.77;;;17.27;98.15
59329;BME280;45100;46.926;7.452;2023-09-18T07:27:19;95070.39;;;17.23;98.10
59329;BME280;45100;46.926;7.452;2023-09-18T07:29:50;95070.07;;;17.20;97.98
59329;BME280;45100;46.926;7.452;2023-09-18T07:32:21;95064.96;;;17.17;98.54
59329;BME280;45100;46.926;7.452;2023-09-18T07:34:50;95066.87;;;17.17;99.09
59329;BME280;45100;46.926;7.452;2023-09-18T07:37:23;95072.59;;;17.18;99.54
59329;BME280;45100;46.926;7.452;2023-09-18T07:39:51;95082.38;;;17.20;99.64
59329;BME280;45100;46.926;7.452;2023-09-18T07:42:25;95092.27;;;17.23;99.59
59329;BME280;45100;46.926;7.452;2023-09-18T07:44:52;95101.62;;;17.25;99.49
59329;BME280;45100;46.926;7.452;2023-09-18T07:47:23;95106.53;;;17.26;99.39
59329;BME280;45100;46.926;7.452;2023-09-18T07:49:55;95105.42;;;17.28;99.20
59329;BME280;45100;46.926;7.452;2023-09-18T07:52:25;95111.48;;;17.27;98.33
59329;BME280;45100;46.926;7.452;2023-09-18T07:54:56;95112.62;;;17.27;98.21
59329;BME280;45100;46.926;7.452;2023-09-18T07:57:26;95123.83;;;17.25;97.80
59329;BME280;45100;46.926;7.452;2023-09-18T07:59:56;95129.88;;;17.26;97.92
59329;BME280;45100;46.926;7.452;2023-09-18T08:02:32;95139.68;;;17.27;98.15
59329;BME280;45100;46.926;7.452;2023-09-18T08:07:31;95161.33;;;17.32;98.63
59329;BME280;45100;46.926;7.452;2023-09-18T08:10:02;95162.47;;;17.35;98.66
59329;BME280;45100;46.926;7.452;2023-09-18T08:12:32;95148.69;;;17.34;98.41
59329;BME280;45100;46.926;7.452;2023-09-18T08:15:03;95133.94;;;17.35;98.67
59329;BME280;45100;46.926;7.452;2023-09-18T08:17:32;95133.08;;;17.36;98.50
59329;BME280;45100;46.926;7.452;2023-09-18T08:20:09;95159.38;;;17.36;98.44
59329;BME280;45100;46.926;7.452;2023-09-18T08:22:33;95176.41;;;17.36;98.77
59329;BME280;45100;46.926;7.452;2023-09-18T08:25:04;95168.84;;;17.35;99.11
59329;BME280;45100;46.926;7.452;2023-09-18T08:27:38;95178.54;;;17.34;99.04
59329;BME280;45100;46.926;7.452;2023-09-18T08:30:05;95179.93;;;17.34;99.50
59329;BME280;45100;46.926;7.452;2023-09-18T08:32:36;95189.03;;;17.34;99.64
59329;BME280;45100;46.926;7.452;2023-09-18T08:35:07;95184.42;;;17.34;99.88
59329;BME280;45100;46.926;7.452;2023-09-18T08:37:36;95181.20;;;17.32;99.78
59329;BME280;45100;46.926;7.452;2023-09-18T08:40:11;95184.20;;;17.31;99.67
59329;BME280;45100;46.926;7.452;2023-09-18T08:42:39;95178.92;;;17.27;100.00
59329;BME280;45100;46.926;7.452;2023-09-18T08:45:09;95173.95;;;17.26;100.00
59329;BME280;45100;46.926;7.452;2023-09-18T08:47:39;95178.80;;;17.23;100.00
59329;BME280;45100;46.926;7.452;2023-09-18T08:50:10;95195.02;;;17.19;100.00
59329;BME280;45100;46.926;7.452;2023-09-18T08:52:39;95190.83;;;17.17;100.00
59329;BME280;45100;46.926;7.452;2023-09-18T08:55:10;95187.94;;;17.13;100.00
59329;BME280;45100;46.926;7.452;2023-09-18T08:57:42;95184.69;;;17.11;100.00
59329;BME280;45100;46.926;7.452;2023-09-18T09:00:17;95187.12;;;17.10;100.00
59329;BME280;45100;46.926;7.452;2023-09-18T09:02:43;95193.66;;;17.10;100.00
59329;BME280;45100;46.926;7.452;2023-09-18T09:05:13;95203.34;;;17.10;100.00
59329;BME280;45100;46.926;7.452;2023-09-18T09:07:43;95198.22;;;17.10;100.00
59329;BME280;45100;46.926;7.452;2023-09-18T09:10:14;95202.05;;;17.09;100.00
59329;BME280;45100;46.926;7.452;2023-09-18T09:12:58;95198.50;;;17.11;100.00
59329;BME280;45100;46.926;7.452;2023-09-18T09:15:15;95196.55;;;17.14;100.00
59329;BME280;45100;46.926;7.452;2023-09-18T09:17:45;95200.80;;;17.17;100.00
59329;BME280;45100;46.926;7.452;2023-09-18T09:20:16;95193.66;;;17.20;100.00
59329;BME280;45100;46.926;7.452;2023-09-18T09:22:45;95198.07;;;17.23;100.00
59329;BME280;45100;46.926;7.452;2023-09-18T09:25:27;95207.59;;;17.25;100.00
59329;BME280;45100;46.926;7.452;2023-09-18T09:27:47;95213.64;;;17.26;100.00
59329;BME280;45100;46.926;7.452;2023-09-18T09:30:21;95228.83;;;17.27;100.00
59329;BME280;45100;46.926;7.452;2023-09-18T09:32:50;95226.48;;;17.26;100.00
59329;BME280;45100;46.926;7.452;2023-09-18T09:35:24;95221.96;;;17.26;100.00
59329;BME280;45100;46.926;7.452;2023-09-18T09:37:52;95207.59;;;17.26;100.00
59329;BME280;45100;46.926;7.452;2023-09-18T09:40:21;95200.47;;;17.27;100.00
59329;BME280;45100;46.926;7.452;2023-09-18T09:42:56;95202.85;;;17.28;100.00
59329;BME280;45100;46.926;7.452;2023-09-18T09:45:22;95189.36;;;17.29;100.00
59329;BME280;45100;46.926;7.452;2023-09-18T09:47:55;95171.68;;;17.30;100.00
59329;BME280;45100;46.926;7.452;2023-09-18T09:50:23;95195.35;;;17.33;100.00
59329;BME280;45100;46.926;7.452;2023-09-18T09:52:54;95189.96;;;17.36;100.00
59329;BME280;45100;46.926;7.452;2023-09-18T09:55:32;95187.29;;;17.38;100.00
59329;BME280;45100;46.926;7.452;2023-09-18T09:57:59;95180.63;;;17.40;100.00
59329;BME280;45100;46.926;7.452;2023-09-18T10:00:33;95174.27;;;17.40;100.00
59329;BME280;45100;46.926;7.452;2023-09-18T10:03:00;95162.84;;;17.42;100.00
59329;BME280;45100;46.926;7.452;2023-09-18T10:05:29;95151.45;;;17.43;100.00
59329;BME280;45100;46.926;7.452;2023-09-18T10:08:03;95136.48;;;17.43;100.00
59329;BME280;45100;46.926;7.452;2023-09-18T10:10:31;95126.30;;;17.43;100.00
59329;BME280;45100;46.926;7.452;2023-09-18T10:13:00;95134.42;;;17.40;100.00
59329;BME280;45100;46.926;7.452;2023-09-18T10:15:29;95115.59;;;17.37;100.00
59329;BME280;45100;46.926;7.452;2023-09-18T10:18:03;95102.00;;;17.33;100.00
59329;BME280;45100;46.926;7.452;2023-09-18T10:20:29;95084.42;;;17.28;100.00
59329;BME280;45100;46.926;7.452;2023-09-18T10:23:00;95073.77;;;17.24;100.00
59329;BME280;45100;46.926;7.452;2023-09-18T10:25:29;95044.02;;;17.18;100.00
59329;BME280;45100;46.926;7.452;2023-09-18T10:28:04;95082.75;;;17.13;100.00
59329;BME280;45100;46.926;7.452;2023-09-18T10:30:32;95098.27;;;17.11;100.00
59329;BME280;45100;46.926;7.452;2023-09-18T10:33:03;95079.23;;;17.11;100.00
59329;BME280;45100;46.926;7.452;2023-09-18T10:35:34;95078.91;;;17.11;100.00
59329;BME280;45100;46.926;7.452;2023-09-18T10:38:05;95062.64;;;17.12;100.00
59329;BME280;45100;46.926;7.452;2023-09-18T10:40:34;95057.36;;;17.11;100.00
59329;BME280;45100;46.926;7.452;2023-09-18T10:45:37;95087.56;;;17.18;100.00
59329;BME280;45100;46.926;7.452;2023-09-18T10:48:09;95077.36;;;17.23;100.00
59329;BME280;45100;46.926;7.452;2023-09-18T10:50:42;95091.33;;;17.28;99.75
59329;BME280;45100;46.926;7.452;2023-09-18T10:53:08;95103.95;;;17.36;99.40
59329;BME280;45100;46.926;7.452;2023-09-18T10:55:41;95104.35;;;17.46;99.21
59329;BME280;45100;46.926;7.452;2023-09-18T10:58:09;95104.22;;;17.56;98.65
59329;BME280;45100;46.926;7.452;2023-09-18T11:00:42;95113.47;;;17.63;98.24
59329;BME280;45100;46.926;7.452;2023-09-18T11:03:15;95122.81;;;17.68;98.57
59329;BME280;45100;46.926;7.452;2023-09-18T11:05:43;95106.78;;;17.73;98.81
59329;BME280;45100;46.926;7.452;2023-09-18T11:08:31;95102.77;;;17.78;97.58
59329;BME280;45100;46.926;7.452;2023-09-18T11:11:08;95085.55;;;17.85;97.76
59329;BME280;45100;46.926;7.452;2023-09-18T11:13:30;95056.79;;;17.94;97.20
59329;BME280;45100;46.926;7.452;2023-09-18T11:15:48;95047.55;;;18.07;97.77
59329;BME280;45100;46.926;7.452;2023-09-18T11:18:20;95044.90;;;18.24;98.30
59329;BME280;45100;46.926;7.452;2023-09-18T11:21:06;95057.78;;;18.43;97.70
59329;BME280;45100;46.926;7.452;2023-09-18T11:23:23;95082.79;;;18.56;96.48
59329;BME280;45100;46.926;7.452;2023-09-18T11:25:54;95115.91;;;18.63;95.23
59329;BME280;45100;46.926;7.452;2023-09-18T11:28:25;95127.45;;;18.67;94.64
59329;BME280;45100;46.926;7.452;2023-09-18T11:30:53;95133.52;;;18.62;92.37
59329;BME280;45100;46.926;7.452;2023-09-18T11:33:38;95137.88;;;18.56;91.86
59329;BME280;45100;46.926;7.452;2023-09-18T11:38:21;95159.10;;;18.45;92.82
59329;BME280;45100;46.926;7.452;2023-09-18T11:40:51;95156.54;;;18.45;92.35
59329;BME280;45100;46.926;7.452;2023-09-18T11:43:30;95149.66;;;18.48;92.86
59329;BME280;45100;46.926;7.452;2023-09-18T11:45:53;95160.16;;;18.51;92.12
59329;BME280;45100;46.926;7.452;2023-09-18T11:48:25;95161.83;;;18.54;91.35
59329;BME280;45100;46.926;7.452;2023-09-18T11:50:52;95162.27;;;18.52;90.38
59329;BME280;45100;46.926;7.452;2023-09-18T11:53:23;95151.66;;;18.46;88.85
59329;BME280;45100;46.926;7.452;2023-09-18T11:55:53;95143.74;;;18.42;89.20
59329;BME280;45100;46.926;7.452;2023-09-18T11:58:24;95136.85;;;18.36;86.77
59329;BME280;45100;46.926;7.452;2023-09-18T12:00:53;95129.17;;;18.24;86.04
59329;BME280;45100;46.926;7.452;2023-09-18T12:03:26;95105.02;;;18.13;86.79
59329;BME280;45100;46.926;7.452;2023-09-18T12:05:59;95080.45;;;18.03;86.50
59329;BME280;45100;46.926;7.452;2023-09-18T12:08:29;95086.50;;;17.98;88.90
59329;BME280;45100;46.926;7.452;2023-09-18T12:10:57;95096.31;;;17.99;90.32
59329;BME280;45100;46.926;7.452;2023-09-18T12:13:28;95078.86;;;18.02;89.64
59329;BME280;45100;46.926;7.452;2023-09-18T12:16:00;95079.86;;;18.06;89.83
59329;BME280;45100;46.926;7.452;2023-09-18T12:18:29;95067.57;;;18.14;90.54
59329;BME280;45100;46.926;7.452;2023-09-18T12:21:00;95060.89;;;18.21;90.84
59329;BME280;45100;46.926;7.452;2023-09-18T12:23:38;95069.52;;;18.27;91.66
59329;BME280;45100;46.926;7.452;2023-09-18T12:26:00;95061.17;;;18.34;91.63
59329;BME280;45100;46.926;7.452;2023-09-18T12:28:35;95050.30;;;18.38;91.12
59329;BME280;45100;46.926;7.452;2023-09-18T12:31:12;95051.53;;;18.40;91.10
59329;BME280;45100;46.926;7.452;2023-09-18T12:33:34;95055.70;;;18.37;91.03
59329;BME280;45100;46.926;7.452;2023-09-18T12:36:01;95060.43;;;18.33;91.20
59329;BME280;45100;46.926;7.452;2023-09-18T12:38:32;95064.53;;;18.28;92.16
59329;BME280;45100;46.926;7.452;2023-09-18T12:41:11;95068.77;;;18.23;93.28
59329;BME280;45100;46.926;7.452;2023-09-18T12:43:40;95072.33;;;18.20;93.53
59329;BME280;45100;46.926;7.452;2023-09-18T12:46:04;95079.71;;;18.18;93.83
59329;BME280;45100;46.926;7.452;2023-09-18T12:48:38;95075.74;;;18.14;93.44
59329;BME280;45100;46.926;7.452;2023-09-18T12:51:07;95073.00;;;18.07;93.50
59329;BME280;45100;46.926;7.452;2023-09-18T12:53:35;95078.31;;;18.00;94.16
59329;BME280;45100;46.926;7.452;2023-09-18T12:56:07;95080.58;;;17.96;95.61
59329;BME280;45100;46.926;7.452;2023-09-18T12:58:36;95081.84;;;17.94;96.63
59329;BME280;45100;46.926;7.452;2023-09-18T13:01:11;95097.54;;;17.93;96.64
59329;BME280;45100;46.926;7.452;2023-09-18T13:03:45;95108.11;;;17.93;97.19
59329;BME280;45100;46.926;7.452;2023-09-18T13:06:10;95081.68;;;17.92;97.31
59329;BME280;45100;46.926;7.452;2023-09-18T13:08:39;95069.70;;;17.89;97.51
59329;BME280;45100;46.926;7.452;2023-09-18T13:11:13;95097.44;;;17.90;98.73
59329;BME280;45100;46.926;7.452;2023-09-18T13:13:40;95099.21;;;17.95;98.14
59329;BME280;45100;46.926;7.452;2023-09-18T13:16:10;95094.09;;;18.00;97.04
59329;BME280;45100;46.926;7.452;2023-09-18T13:18:41;95090.71;;;18.07;96.88
59329;BME280;45100;46.926;7.452;2023-09-18T13:21:13;95090.06;;;18.16;97.17
59329;BME280;45100;46.926;7.452;2023-09-18T13:23:43;95083.52;;;18.25;97.31
59329;BME280;45100;46.926;7.452;2023-09-18T13:26:13;95089.25;;;18.27;96.81
59329;BME280;45100;46.926;7.452;2023-09-18T13:28:44;95086.96;;;18.26;96.58
59329;BME280;45100;46.926;7.452;2023-09-18T13:31:14;95077.50;;;18.24;96.12
59329;BME280;45100;46.926;7.452;2023-09-18T13:33:45;95055.47;;;18.22;95.15
59329;BME280;45100;46.926;7.452;2023-09-18T13:36:16;95007.11;;;18.16;94.61
59329;BME280;45100;46.926;7.452;2023-09-18T13:38:46;94983.03;;;18.09;93.15
59329;BME280;45100;46.926;7.452;2023-09-18T13:41:17;95033.52;;;18.02;92.09
59329;BME280;45100;46.926;7.452;2023-09-18T13:43:50;95076.22;;;17.95;91.44
59329;BME280;45100;46.926;7.452;2023-09-18T13:46:18;95082.00;;;17.84;91.32
59329;BME280;45100;46.926;7.452;2023-09-18T13:48:49;95083.54;;;17.72;92.15